Shawnee, Kansas
Current Conditions -  °F | °C
As of 5:54 PM on Wednesday 22 Oct 2014 (Local Time) from KMKC Reporting Station
Clear Clear  
Wind Chill: 72°   Ceiling: Unl
Heat Index: 72°   Visibility: 10mi
Dew Point: 54°   Wind: 9mph
Humidity: 53%   Direction: 130°SE
Pressure: 30.09"   Gusts: 17mph
Location:  39.02°N, 94.71°W
Report Text: KMKC 222254Z 13008G15KT 10SM CLR 22/12 A3009 RMK AO2 SLP186 T02220122
Loading
Personal Weather Stations






























Interactive Weather Map
Tropical Storm Tracking
New forecast layout! Learn more

10-Day Weather Forecast

Advertisements
Track Severe Weather on mobile